sensor_id;sensor_type;location;lat;lon;timestamp;pressure;altitude;pressure_sealevel;temperature;humidity
16834;BME280;8533;48.426;10.868;2024-03-22T00:00:29;96838.59;;;5.38;100.00
16834;BME280;8533;48.426;10.868;2024-03-22T00:02:55;96779.00;;;4.97;100.00
16834;BME280;8533;48.426;10.868;2024-03-22T00:05:20;96773.00;;;4.83;100.00
16834;BME280;8533;48.426;10.868;2024-03-22T00:07:47;96843.34;;;5.28;100.00
16834;BME280;8533;48.426;10.868;2024-03-22T00:10:12;96683.81;;;4.23;100.00
16834;BME280;8533;48.426;10.868;2024-03-22T00:12:38;96812.53;;;4.98;100.00
16834;BME280;8533;48.426;10.868;2024-03-22T00:15:04;96833.72;;;5.09;100.00
16834;BME280;8533;48.426;10.868;2024-03-22T00:17:30;96790.94;;;4.85;100.00
16834;BME280;8533;48.426;10.868;2024-03-22T00:19:56;96754.56;;;4.65;100.00
16834;BME280;8533;48.426;10.868;2024-03-22T00:22:21;96766.53;;;4.66;100.00
16834;BME280;8533;48.426;10.868;2024-03-22T00:24:46;96771.53;;;4.74;100.00
16834;BME280;8533;48.426;10.868;2024-03-22T00:27:12;96756.16;;;4.66;100.00
16834;BME280;8533;48.426;10.868;2024-03-22T00:29:37;96808.97;;;5.06;100.00
16834;BME280;8533;48.426;10.868;2024-03-22T00:32:03;96803.56;;;5.01;100.00
16834;BME280;8533;48.426;10.868;2024-03-22T00:34:29;96572.44;;;3.63;100.00
16834;BME280;8533;48.426;10.868;2024-03-22T00:36:54;96789.41;;;5.04;100.00
16834;BME280;8533;48.426;10.868;2024-03-22T00:39:19;96811.66;;;5.26;100.00
16834;BME280;8533;48.426;10.868;2024-03-22T00:41:44;96775.84;;;5.02;100.00
16834;BME280;8533;48.426;10.868;2024-03-22T00:44:10;96724.47;;;4.71;100.00
16834;BME280;8533;48.426;10.868;2024-03-22T00:46:35;96773.28;;;5.02;100.00
16834;BME280;8533;48.426;10.868;2024-03-22T00:49:01;96818.00;;;5.23;100.00
16834;BME280;8533;48.426;10.868;2024-03-22T00:51:27;96793.06;;;5.16;100.00
16834;BME280;8533;48.426;10.868;2024-03-22T00:53:53;96805.66;;;5.25;100.00
16834;BME280;8533;48.426;10.868;2024-03-22T00:56:18;96578.50;;;3.83;100.00
16834;BME280;8533;48.426;10.868;2024-03-22T00:58:43;96740.50;;;4.87;100.00
16834;BME280;8533;48.426;10.868;2024-03-22T01:01:09;96799.88;;;5.30;100.00
16834;BME280;8533;48.426;10.868;2024-03-22T01:03:34;96767.13;;;5.16;100.00
16834;BME280;8533;48.426;10.868;2024-03-22T01:05:59;96799.50;;;5.33;100.00
16834;BME280;8533;48.426;10.868;2024-03-22T01:08:25;96733.56;;;4.94;100.00
16834;BME280;8533;48.426;10.868;2024-03-22T01:10:50;96735.72;;;4.91;100.00
16834;BME280;8533;48.426;10.868;2024-03-22T01:13:16;96776.50;;;5.17;100.00
16834;BME280;8533;48.426;10.868;2024-03-22T01:15:41;96764.31;;;5.11;100.00
16834;BME280;8533;48.426;10.868;2024-03-22T01:18:07;96773.09;;;5.10;100.00
16834;BME280;8533;48.426;10.868;2024-03-22T01:20:32;96749.88;;;4.95;100.00
16834;BME280;8533;48.426;10.868;2024-03-22T01:22:59;96856.53;;;5.26;100.00
16834;BME280;8533;48.426;10.868;2024-03-22T01:25:25;96763.13;;;5.13;100.00
16834;BME280;8533;48.426;10.868;2024-03-22T01:27:50;96725.19;;;4.99;100.00
16834;BME280;8533;48.426;10.868;2024-03-22T01:30:16;96779.34;;;5.35;100.00
16834;BME280;8533;48.426;10.868;2024-03-22T01:32:41;96731.63;;;5.10;100.00
16834;BME280;8533;48.426;10.868;2024-03-22T01:35:07;96679.88;;;4.75;100.00
16834;BME280;8533;48.426;10.868;2024-03-22T01:37:33;96758.56;;;5.22;100.00
16834;BME280;8533;48.426;10.868;2024-03-22T01:39:58;96762.13;;;5.21;100.00
16834;BME280;8533;48.426;10.868;2024-03-22T01:42:23;96703.81;;;4.77;100.00
16834;BME280;8533;48.426;10.868;2024-03-22T01:44:49;96767.31;;;5.21;100.00
16834;BME280;8533;48.426;10.868;2024-03-22T01:47:15;96705.16;;;4.73;100.00
16834;BME280;8533;48.426;10.868;2024-03-22T01:49:41;96733.34;;;4.89;100.00
16834;BME280;8533;48.426;10.868;2024-03-22T01:52:06;96680.59;;;4.56;100.00
16834;BME280;8533;48.426;10.868;2024-03-22T01:54:32;96749.13;;;4.94;100.00
16834;BME280;8533;48.426;10.868;2024-03-22T01:56:57;96663.25;;;4.50;100.00
16834;BME280;8533;48.426;10.868;2024-03-22T01:59:23;96722.59;;;4.92;100.00
16834;BME280;8533;48.426;10.868;2024-03-22T02:01:48;96513.56;;;3.65;100.00
16834;BME280;8533;48.426;10.868;2024-03-22T02:04:14;96747.78;;;5.18;100.00
16834;BME280;8533;48.426;10.868;2024-03-22T02:06:39;96702.06;;;4.97;100.00
16834;BME280;8533;48.426;10.868;2024-03-22T02:09:05;96635.56;;;4.57;100.00
16834;BME280;8533;48.426;10.868;2024-03-22T02:11:31;96640.19;;;4.62;100.00
16834;BME280;8533;48.426;10.868;2024-03-22T02:13:57;96676.09;;;4.78;100.00
16834;BME280;8533;48.426;10.868;2024-03-22T02:16:22;96654.13;;;4.67;100.00
16834;BME280;8533;48.426;10.868;2024-03-22T02:18:47;96714.47;;;5.09;100.00
16834;BME280;8533;48.426;10.868;2024-03-22T02:21:13;96681.09;;;4.86;100.00
16834;BME280;8533;48.426;10.868;2024-03-22T02:23:40;96644.94;;;4.58;100.00
16834;BME280;8533;48.426;10.868;2024-03-22T02:26:06;96648.75;;;4.62;100.00
16834;BME280;8533;48.426;10.868;2024-03-22T02:28:32;96657.72;;;4.66;100.00
16834;BME280;8533;48.426;10.868;2024-03-22T02:30:58;96534.16;;;3.86;100.00
16834;BME280;8533;48.426;10.868;2024-03-22T02:33:24;96606.81;;;4.39;100.00
16834;BME280;8533;48.426;10.868;2024-03-22T02:35:49;96697.47;;;4.93;100.00
16834;BME280;8533;48.426;10.868;2024-03-22T02:38:15;96689.63;;;4.80;100.00
16834;BME280;8533;48.426;10.868;2024-03-22T02:40:42;96748.69;;;4.84;100.00
16834;BME280;8533;48.426;10.868;2024-03-22T02:43:08;96677.63;;;4.59;100.00
16834;BME280;8533;48.426;10.868;2024-03-22T02:45:33;96727.88;;;4.71;100.00
16834;BME280;8533;48.426;10.868;2024-03-22T02:47:59;96659.41;;;4.39;100.00
16834;BME280;8533;48.426;10.868;2024-03-22T02:50:24;96703.31;;;4.54;100.00
16834;BME280;8533;48.426;10.868;2024-03-22T02:52:49;96508.63;;;3.35;100.00
16834;BME280;8533;48.426;10.868;2024-03-22T02:55:15;96705.47;;;4.50;100.00
16834;BME280;8533;48.426;10.868;2024-03-22T02:57:40;96676.31;;;4.29;100.00
16834;BME280;8533;48.426;10.868;2024-03-22T03:00:06;96695.47;;;4.41;100.00
16834;BME280;8533;48.426;10.868;2024-03-22T03:02:32;96594.34;;;3.67;100.00
16834;BME280;8533;48.426;10.868;2024-03-22T03:04:57;96688.84;;;4.32;100.00
16834;BME280;8533;48.426;10.868;2024-03-22T03:07:24;96592.38;;;3.69;100.00
16834;BME280;8533;48.426;10.868;2024-03-22T03:09:49;96682.84;;;4.25;100.00
16834;BME280;8533;48.426;10.868;2024-03-22T03:12:14;96542.84;;;3.37;100.00
16834;BME280;8533;48.426;10.868;2024-03-22T03:14:40;96583.97;;;3.67;100.00
16834;BME280;8533;48.426;10.868;2024-03-22T03:17:05;96676.09;;;4.30;100.00
16834;BME280;8533;48.426;10.868;2024-03-22T03:19:30;96659.78;;;4.30;100.00
16834;BME280;8533;48.426;10.868;2024-03-22T03:21:56;96661.19;;;4.39;100.00
16834;BME280;8533;48.426;10.868;2024-03-22T03:24:21;96639.44;;;4.27;100.00
16834;BME280;8533;48.426;10.868;2024-03-22T03:26:46;96637.66;;;4.27;100.00
16834;BME280;8533;48.426;10.868;2024-03-22T03:29:12;96570.97;;;3.88;100.00
16834;BME280;8533;48.426;10.868;2024-03-22T03:31:37;96615.50;;;4.18;100.00
16834;BME280;8533;48.426;10.868;2024-03-22T03:34:02;96644.44;;;4.35;100.00
16834;BME280;8533;48.426;10.868;2024-03-22T03:36:28;96645.28;;;4.42;100.00
16834;BME280;8533;48.426;10.868;2024-03-22T03:38:53;96580.97;;;3.98;100.00
16834;BME280;8533;48.426;10.868;2024-03-22T03:41:18;96657.63;;;4.46;100.00
16834;BME280;8533;48.426;10.868;2024-03-22T03:43:44;96553.84;;;3.80;100.00
16834;BME280;8533;48.426;10.868;2024-03-22T03:46:09;96660.81;;;4.42;100.00
16834;BME280;8533;48.426;10.868;2024-03-22T03:48:34;96656.22;;;4.37;100.00
16834;BME280;8533;48.426;10.868;2024-03-22T03:50:59;96653.81;;;4.36;100.00
16834;BME280;8533;48.426;10.868;2024-03-22T03:53:28;96631.66;;;4.20;100.00
16834;BME280;8533;48.426;10.868;2024-03-22T03:55:53;96524.25;;;3.55;100.00
16834;BME280;8533;48.426;10.868;2024-03-22T03:58:19;96598.50;;;4.02;100.00
16834;BME280;8533;48.426;10.868;2024-03-22T04:00:44;96687.84;;;4.33;100.00
16834;BME280;8533;48.426;10.868;2024-03-22T04:03:09;96517.22;;;3.42;100.00
16834;BME280;8533;48.426;10.868;2024-03-22T04:05:35;96407.28;;;2.71;100.00
16834;BME280;8533;48.426;10.868;2024-03-22T04:08:00;96466.88;;;3.04;100.00
16834;BME280;8533;48.426;10.868;2024-03-22T04:10:25;96651.94;;;4.16;100.00
16834;BME280;8533;48.426;10.868;2024-03-22T04:12:51;96553.69;;;3.54;100.00
16834;BME280;8533;48.426;10.868;2024-03-22T04:15:16;96561.84;;;3.58;100.00
16834;BME280;8533;48.426;10.868;2024-03-22T04:17:41;96636.34;;;4.03;100.00
16834;BME280;8533;48.426;10.868;2024-03-22T04:20:07;96577.66;;;3.69;100.00
16834;BME280;8533;48.426;10.868;2024-03-22T04:22:33;96615.19;;;3.93;100.00
16834;BME280;8533;48.426;10.868;2024-03-22T04:24:59;96564.69;;;3.63;100.00
16834;BME280;8533;48.426;10.868;2024-03-22T04:27:24;96622.97;;;4.00;100.00
16834;BME280;8533;48.426;10.868;2024-03-22T04:29:49;96509.38;;;3.29;100.00
16834;BME280;8533;48.426;10.868;2024-03-22T04:32:14;96568.09;;;3.70;100.00
16834;BME280;8533;48.426;10.868;2024-03-22T04:34:43;96638.94;;;4.03;100.00
16834;BME280;8533;48.426;10.868;2024-03-22T04:37:08;96621.44;;;4.05;100.00
16834;BME280;8533;48.426;10.868;2024-03-22T04:39:34;96611.84;;;4.06;100.00
16834;BME280;8533;48.426;10.868;2024-03-22T04:42:00;96294.38;;;1.96;100.00
16834;BME280;8533;48.426;10.868;2024-03-22T04:44:25;96620.81;;;4.03;100.00
16834;BME280;8533;48.426;10.868;2024-03-22T04:46:51;96610.81;;;3.94;100.00
16834;BME280;8533;48.426;10.868;2024-03-22T04:49:16;96543.69;;;3.44;100.00
16834;BME280;8533;48.426;10.868;2024-03-22T04:51:42;96636.31;;;3.97;100.00
16834;BME280;8533;48.426;10.868;2024-03-22T04:54:07;96626.31;;;3.87;100.00
16834;BME280;8533;48.426;10.868;2024-03-22T04:56:32;96608.72;;;3.76;100.00
16834;BME280;8533;48.426;10.868;2024-03-22T04:58:57;96598.31;;;3.63;100.00
16834;BME280;8533;48.426;10.868;2024-03-22T05:01:23;96421.84;;;2.51;100.00
16834;BME280;8533;48.426;10.868;2024-03-22T05:03:49;96611.50;;;3.74;100.00
16834;BME280;8533;48.426;10.868;2024-03-22T05:06:14;96538.03;;;3.34;100.00
16834;BME280;8533;48.426;10.868;2024-03-22T05:08:40;96625.53;;;3.93;100.00
16834;BME280;8533;48.426;10.868;2024-03-22T05:11:06;96570.84;;;3.62;100.00
16834;BME280;8533;48.426;10.868;2024-03-22T05:13:32;96592.03;;;3.78;100.00
16834;BME280;8533;48.426;10.868;2024-03-22T05:15:57;96586.03;;;3.71;100.00
16834;BME280;8533;48.426;10.868;2024-03-22T05:18:23;96589.63;;;3.77;100.00
16834;BME280;8533;48.426;10.868;2024-03-22T05:20:48;96618.56;;;3.94;100.00
16834;BME280;8533;48.426;10.868;2024-03-22T05:23:13;96619.19;;;3.96;100.00
16834;BME280;8533;48.426;10.868;2024-03-22T05:25:41;96594.22;;;3.81;100.00
16834;BME280;8533;48.426;10.868;2024-03-22T05:28:06;96610.16;;;3.85;100.00
16834;BME280;8533;48.426;10.868;2024-03-22T05:30:32;96561.41;;;3.48;100.00
16834;BME280;8533;48.426;10.868;2024-03-22T05:32:58;96626.06;;;3.82;100.00
16834;BME280;8533;48.426;10.868;2024-03-22T05:35:23;96629.50;;;3.89;100.00
16834;BME280;8533;48.426;10.868;2024-03-22T05:37:49;96594.94;;;3.69;100.00
16834;BME280;8533;48.426;10.868;2024-03-22T05:40:15;96630.53;;;3.95;100.00
16834;BME280;8533;48.426;10.868;2024-03-22T05:42:41;96623.97;;;3.99;100.00
16834;BME280;8533;48.426;10.868;2024-03-22T05:45:06;96625.59;;;4.06;100.00
16834;BME280;8533;48.426;10.868;2024-03-22T05:47:32;96620.84;;;4.10;100.00
16834;BME280;8533;48.426;10.868;2024-03-22T05:49:59;96535.00;;;3.59;100.00
16834;BME280;8533;48.426;10.868;2024-03-22T05:52:24;96596.75;;;4.09;100.00
16834;BME280;8533;48.426;10.868;2024-03-22T05:54:49;96598.19;;;4.18;100.00
16834;BME280;8533;48.426;10.868;2024-03-22T05:57:15;96578.66;;;4.16;100.00
16834;BME280;8533;48.426;10.868;2024-03-22T05:59:43;96606.44;;;4.42;100.00
16834;BME280;8533;48.426;10.868;2024-03-22T06:02:08;96487.94;;;3.76;100.00
16834;BME280;8533;48.426;10.868;2024-03-22T06:04:33;96601.88;;;4.57;100.00
16834;BME280;8533;48.426;10.868;2024-03-22T06:06:59;96609.47;;;4.65;100.00
16834;BME280;8533;48.426;10.868;2024-03-22T06:09:27;96620.28;;;4.75;100.00
16834;BME280;8533;48.426;10.868;2024-03-22T06:12:04;96615.09;;;4.88;100.00
16834;BME280;8533;48.426;10.868;2024-03-22T06:14:29;96598.97;;;4.86;100.00
16834;BME280;8533;48.426;10.868;2024-03-22T06:16:55;96601.19;;;5.16;100.00
16834;BME280;8533;48.426;10.868;2024-03-22T06:19:20;96587.22;;;5.17;100.00
16834;BME280;8533;48.426;10.868;2024-03-22T06:21:45;96603.78;;;5.42;100.00
16834;BME280;8533;48.426;10.868;2024-03-22T06:24:10;96607.94;;;5.56;100.00
16834;BME280;8533;48.426;10.868;2024-03-22T06:26:36;96433.34;;;4.58;100.00
16834;BME280;8533;48.426;10.868;2024-03-22T06:29:01;96562.66;;;5.59;100.00
16834;BME280;8533;48.426;10.868;2024-03-22T06:31:27;96597.53;;;5.96;100.00
16834;BME280;8533;48.426;10.868;2024-03-22T06:33:52;96611.25;;;6.09;100.00
16834;BME280;8533;48.426;10.868;2024-03-22T06:36:18;96514.34;;;5.64;100.00
16834;BME280;8533;48.426;10.868;2024-03-22T06:38:44;96600.16;;;6.40;100.00
16834;BME280;8533;48.426;10.868;2024-03-22T06:41:09;96572.34;;;6.47;100.00
16834;BME280;8533;48.426;10.868;2024-03-22T06:43:34;96577.59;;;6.72;100.00
16834;BME280;8533;48.426;10.868;2024-03-22T06:46:00;96422.19;;;6.00;100.00
16834;BME280;8533;48.426;10.868;2024-03-22T06:48:25;96590.38;;;7.30;100.00
16834;BME280;8533;48.426;10.868;2024-03-22T06:50:50;96566.47;;;7.40;100.00
16834;BME280;8533;48.426;10.868;2024-03-22T06:53:15;96550.72;;;7.35;100.00
16834;BME280;8533;48.426;10.868;2024-03-22T06:55:41;96615.22;;;7.76;100.00
16834;BME280;8533;48.426;10.868;2024-03-22T06:58:06;96601.47;;;7.69;100.00
16834;BME280;8533;48.426;10.868;2024-03-22T07:00:31;96558.13;;;7.56;100.00
16834;BME280;8533;48.426;10.868;2024-03-22T07:02:59;96506.34;;;7.30;100.00
16834;BME280;8533;48.426;10.868;2024-03-22T07:05:27;96491.81;;;7.40;100.00
16834;BME280;8533;48.426;10.868;2024-03-22T07:07:52;96599.53;;;8.19;100.00
16834;BME280;8533;48.426;10.868;2024-03-22T07:10:21;96614.75;;;8.40;100.00
16834;BME280;8533;48.426;10.868;2024-03-22T07:12:47;96591.41;;;8.45;100.00
16834;BME280;8533;48.426;10.868;2024-03-22T07:15:13;96564.22;;;8.41;100.00
16834;BME280;8533;48.426;10.868;2024-03-22T07:17:38;96595.63;;;8.76;100.00
16834;BME280;8533;48.426;10.868;2024-03-22T07:20:04;96551.44;;;8.51;100.00
16834;BME280;8533;48.426;10.868;2024-03-22T07:22:29;96591.34;;;8.82;100.00
16834;BME280;8533;48.426;10.868;2024-03-22T07:24:54;96581.06;;;8.68;100.00
16834;BME280;8533;48.426;10.868;2024-03-22T07:27:20;96578.09;;;8.95;100.00
16834;BME280;8533;48.426;10.868;2024-03-22T07:29:46;96583.47;;;9.11;100.00
16834;BME280;8533;48.426;10.868;2024-03-22T07:32:11;96592.69;;;9.26;100.00
16834;BME280;8533;48.426;10.868;2024-03-22T07:34:36;96599.84;;;9.42;100.00
16834;BME280;8533;48.426;10.868;2024-03-22T07:37:01;96578.75;;;9.43;100.00
16834;BME280;8533;48.426;10.868;2024-03-22T07:39:27;96527.53;;;9.42;100.00
16834;BME280;8533;48.426;10.868;2024-03-22T07:41:52;96579.06;;;9.82;100.00
16834;BME280;8533;48.426;10.868;2024-03-22T07:44:17;96575.91;;;9.80;100.00
16834;BME280;8533;48.426;10.868;2024-03-22T07:46:44;96543.00;;;9.55;100.00
16834;BME280;8533;48.426;10.868;2024-03-22T07:49:11;96532.56;;;9.55;100.00
16834;BME280;8533;48.426;10.868;2024-03-22T07:51:37;96524.50;;;9.45;100.00
16834;BME280;8533;48.426;10.868;2024-03-22T07:54:02;96593.19;;;9.81;100.00
16834;BME280;8533;48.426;10.868;2024-03-22T07:56:28;96557.06;;;9.78;100.00
16834;BME280;8533;48.426;10.868;2024-03-22T07:58:53;96554.09;;;9.86;100.00
16834;BME280;8533;48.426;10.868;2024-03-22T08:01:18;96540.09;;;9.92;100.00
16834;BME280;8533;48.426;10.868;2024-03-22T08:03:44;96571.88;;;10.24;100.00
16834;BME280;8533;48.426;10.868;2024-03-22T08:06:09;96519.72;;;10.17;100.00
16834;BME280;8533;48.426;10.868;2024-03-22T08:08:34;96512.97;;;10.33;100.00
16834;BME280;8533;48.426;10.868;2024-03-22T08:10:59;96577.72;;;10.99;100.00
16834;BME280;8533;48.426;10.868;2024-03-22T08:13:25;96539.16;;;10.78;100.00
16834;BME280;8533;48.426;10.868;2024-03-22T08:15:50;96571.59;;;11.27;100.00
16834;BME280;8533;48.426;10.868;2024-03-22T08:18:15;96565.09;;;11.30;100.00
16834;BME280;8533;48.426;10.868;2024-03-22T08:20:41;96542.97;;;11.37;100.00
16834;BME280;8533;48.426;10.868;2024-03-22T08:23:06;96534.91;;;11.61;100.00
16834;BME280;8533;48.426;10.868;2024-03-22T08:25:32;96361.16;;;10.40;100.00
16834;BME280;8533;48.426;10.868;2024-03-22T08:27:57;96514.44;;;11.58;100.00
16834;BME280;8533;48.426;10.868;2024-03-22T08:30:23;96553.91;;;12.06;100.00
16834;BME280;8533;48.426;10.868;2024-03-22T08:32:49;96549.06;;;12.20;100.00
16834;BME280;8533;48.426;10.868;2024-03-22T08:35:14;96539.06;;;12.17;100.00
16834;BME280;8533;48.426;10.868;2024-03-22T08:37:40;96533.50;;;12.35;100.00
16834;BME280;8533;48.426;10.868;2024-03-22T08:40:05;96513.44;;;12.46;100.00
16834;BME280;8533;48.426;10.868;2024-03-22T08:42:32;96505.84;;;12.49;100.00
16834;BME280;8533;48.426;10.868;2024-03-22T08:44:57;96557.78;;;13.01;100.00
16834;BME280;8533;48.426;10.868;2024-03-22T08:47:22;96545.19;;;13.03;100.00
16834;BME280;8533;48.426;10.868;2024-03-22T08:49:48;96514.53;;;12.82;100.00
16834;BME280;8533;48.426;10.868;2024-03-22T08:52:14;96528.53;;;12.87;100.00
16834;BME280;8533;48.426;10.868;2024-03-22T08:54:39;96520.41;;;12.89;100.00
16834;BME280;8533;48.426;10.868;2024-03-22T08:57:04;96543.75;;;12.90;100.00
16834;BME280;8533;48.426;10.868;2024-03-22T08:59:29;96499.41;;;12.62;100.00
16834;BME280;8533;48.426;10.868;2024-03-22T09:01:55;96561.59;;;13.15;100.00
16834;BME280;8533;48.426;10.868;2024-03-22T09:04:20;96467.09;;;12.88;100.00
16834;BME280;8533;48.426;10.868;2024-03-22T09:06:45;96548.88;;;13.34;100.00
16834;BME280;8533;48.426;10.868;2024-03-22T09:09:11;96529.94;;;13.32;100.00
16834;BME280;8533;48.426;10.868;2024-03-22T09:11:37;96518.53;;;13.16;100.00
16834;BME280;8533;48.426;10.868;2024-03-22T09:14:02;96538.63;;;13.32;100.00
16834;BME280;8533;48.426;10.868;2024-03-22T09:16:28;96527.16;;;13.44;100.00
16834;BME280;8533;48.426;10.868;2024-03-22T09:18:53;96516.06;;;13.36;100.00
16834;BME280;8533;48.426;10.868;2024-03-22T09:21:19;96526.41;;;13.53;100.00
16834;BME280;8533;48.426;10.868;2024-03-22T09:23:44;96507.91;;;13.38;99.42
16834;BME280;8533;48.426;10.868;2024-03-22T09:26:09;96465.44;;;13.14;98.87
16834;BME280;8533;48.426;10.868;2024-03-22T09:28:35;96490.75;;;13.25;100.00
16834;BME280;8533;48.426;10.868;2024-03-22T09:31:06;96521.38;;;13.47;100.00
16834;BME280;8533;48.426;10.868;2024-03-22T09:33:35;96517.53;;;13.64;100.00
16834;BME280;8533;48.426;10.868;2024-03-22T09:36:01;96477.94;;;13.34;100.00
16834;BME280;8533;48.426;10.868;2024-03-22T09:38:27;96454.69;;;13.16;99.82
16834;BME280;8533;48.426;10.868;2024-03-22T09:40:53;96423.84;;;13.01;100.00
16834;BME280;8533;48.426;10.868;2024-03-22T09:43:22;96371.16;;;12.76;100.00
16834;BME280;8533;48.426;10.868;2024-03-22T09:45:49;96499.44;;;13.68;99.76
16834;BME280;8533;48.426;10.868;2024-03-22T09:48:18;96305.84;;;12.42;98.52
16834;BME280;8533;48.426;10.868;2024-03-22T09:50:46;96502.38;;;13.77;97.51
16834;BME280;8533;48.426;10.868;2024-03-22T09:53:12;96486.84;;;13.75;98.65
16834;BME280;8533;48.426;10.868;2024-03-22T09:55:38;96482.34;;;13.70;99.63
16834;BME280;8533;48.426;10.868;2024-03-22T09:58:08;96503.16;;;13.82;98.69
16834;BME280;8533;48.426;10.868;2024-03-22T10:00:34;96501.16;;;13.99;99.14
16834;BME280;8533;48.426;10.868;2024-03-22T10:03:00;96490.91;;;14.08;99.11
16834;BME280;8533;48.426;10.868;2024-03-22T10:05:25;96478.03;;;14.06;96.76
16834;BME280;8533;48.426;10.868;2024-03-22T10:07:51;96485.44;;;14.25;95.53
16834;BME280;8533;48.426;10.868;2024-03-22T10:10:16;96489.97;;;14.34;95.77
16834;BME280;8533;48.426;10.868;2024-03-22T10:12:42;96423.81;;;14.00;93.84
16834;BME280;8533;48.426;10.868;2024-03-22T10:15:07;96462.84;;;14.34;95.82
16834;BME280;8533;48.426;10.868;2024-03-22T10:17:38;96485.78;;;14.38;100.00
16834;BME280;8533;48.426;10.868;2024-03-22T10:20:05;96464.41;;;14.25;96.64
16834;BME280;8533;48.426;10.868;2024-03-22T10:22:34;96486.63;;;14.59;95.30
16834;BME280;8533;48.426;10.868;2024-03-22T10:25:00;96418.59;;;14.16;93.59
16834;BME280;8533;48.426;10.868;2024-03-22T10:27:27;96461.31;;;14.63;94.89
16834;BME280;8533;48.426;10.868;2024-03-22T10:29:52;96455.03;;;14.59;100.00
16834;BME280;8533;48.426;10.868;2024-03-22T10:32:18;96448.44;;;14.82;97.15
16834;BME280;8533;48.426;10.868;2024-03-22T10:34:45;96478.72;;;14.95;92.16
16834;BME280;8533;48.426;10.868;2024-03-22T10:37:14;96519.00;;;15.51;88.81
16834;BME280;8533;48.426;10.868;2024-03-22T10:39:42;96461.56;;;15.38;90.05
16834;BME280;8533;48.426;10.868;2024-03-22T10:42:07;96430.72;;;15.38;87.76
16834;BME280;8533;48.426;10.868;2024-03-22T10:44:33;96461.13;;;15.90;84.51
16834;BME280;8533;48.426;10.868;2024-03-22T10:47:00;96352.75;;;15.17;88.31
16834;BME280;8533;48.426;10.868;2024-03-22T10:49:27;96462.03;;;16.29;81.44
16834;BME280;8533;48.426;10.868;2024-03-22T10:51:57;96397.03;;;16.33;80.25
16834;BME280;8533;48.426;10.868;2024-03-22T10:54:27;96453.69;;;16.90;74.26
16834;BME280;8533;48.426;10.868;2024-03-22T10:56:54;96373.28;;;16.33;74.64
16834;BME280;8533;48.426;10.868;2024-03-22T10:59:21;96438.03;;;17.28;72.93
16834;BME280;8533;48.426;10.868;2024-03-22T11:01:47;96433.63;;;17.71;69.29
16834;BME280;8533;48.426;10.868;2024-03-22T11:04:15;96400.97;;;17.57;69.71
16834;BME280;8533;48.426;10.868;2024-03-22T11:06:40;96416.81;;;18.23;65.73
16834;BME280;8533;48.426;10.868;2024-03-22T11:09:05;96416.19;;;18.31;65.18
16834;BME280;8533;48.426;10.868;2024-03-22T11:11:35;96421.31;;;18.41;64.75
16834;BME280;8533;48.426;10.868;2024-03-22T11:14:03;96377.16;;;18.88;62.17
16834;BME280;8533;48.426;10.868;2024-03-22T11:16:29;96404.66;;;19.52;60.07
16834;BME280;8533;48.426;10.868;2024-03-22T11:18:55;96394.09;;;19.88;57.59
16834;BME280;8533;48.426;10.868;2024-03-22T11:21:20;96396.91;;;20.18;57.91
16834;BME280;8533;48.426;10.868;2024-03-22T11:23:46;96390.56;;;19.92;54.85
16834;BME280;8533;48.426;10.868;2024-03-22T11:26:11;96333.38;;;19.72;53.62
16834;BME280;8533;48.426;10.868;2024-03-22T11:28:37;96147.19;;;18.25;54.06
16834;BME280;8533;48.426;10.868;2024-03-22T11:31:03;96348.53;;;19.44;53.36
16834;BME280;8533;48.426;10.868;2024-03-22T11:33:30;96419.25;;;20.17;52.59
16834;BME280;8533;48.426;10.868;2024-03-22T11:35:58;96236.50;;;19.48;52.10
16834;BME280;8533;48.426;10.868;2024-03-22T11:38:24;96361.97;;;19.21;57.22
16834;BME280;8533;48.426;10.868;2024-03-22T11:40:52;96363.84;;;19.34;57.92
16834;BME280;8533;48.426;10.868;2024-03-22T11:43:19;96361.25;;;19.97;53.95
16834;BME280;8533;48.426;10.868;2024-03-22T11:45:45;96320.81;;;20.23;53.84
16834;BME280;8533;48.426;10.868;2024-03-22T11:48:10;96337.91;;;20.30;51.73
16834;BME280;8533;48.426;10.868;2024-03-22T11:50:37;96363.66;;;20.43;51.35
16834;BME280;8533;48.426;10.868;2024-03-22T11:53:05;96242.47;;;19.89;50.83
16834;BME280;8533;48.426;10.868;2024-03-22T11:55:30;96290.44;;;20.51;50.65
16834;BME280;8533;48.426;10.868;2024-03-22T11:57:57;96303.88;;;19.74;51.85
16834;BME280;8533;48.426;10.868;2024-03-22T12:00:22;96314.31;;;20.06;49.97
16834;BME280;8533;48.426;10.868;2024-03-22T12:02:50;96312.34;;;20.34;49.69
16834;BME280;8533;48.426;10.868;2024-03-22T12:05:17;96311.22;;;20.13;50.75
16834;BME280;8533;48.426;10.868;2024-03-22T12:07:42;96272.06;;;20.18;49.95
16834;BME280;8533;48.426;10.868;2024-03-22T12:10:08;96266.38;;;20.56;48.52
16834;BME280;8533;48.426;10.868;2024-03-22T12:12:33;96294.09;;;21.03;48.29
16834;BME280;8533;48.426;10.868;2024-03-22T12:14:58;96283.41;;;20.94;50.00
16834;BME280;8533;48.426;10.868;2024-03-22T12:17:23;96237.69;;;20.75;48.67
16834;BME280;8533;48.426;10.868;2024-03-22T12:19:49;96274.72;;;21.11;49.33
16834;BME280;8533;48.426;10.868;2024-03-22T12:22:14;96273.72;;;20.90;49.99
16834;BME280;8533;48.426;10.868;2024-03-22T12:24:39;96257.13;;;20.53;51.52
16834;BME280;8533;48.426;10.868;2024-03-22T12:27:04;96262.88;;;20.47;49.63
16834;BME280;8533;48.426;10.868;2024-03-22T12:29:33;96203.94;;;20.23;49.30
16834;BME280;8533;48.426;10.868;2024-03-22T12:31:59;96250.41;;;20.56;49.60
16834;BME280;8533;48.426;10.868;2024-03-22T12:34:29;96239.63;;;20.08;49.87
16834;BME280;8533;48.426;10.868;2024-03-22T12:36:54;96249.50;;;19.71;52.67
16834;BME280;8533;48.426;10.868;2024-03-22T12:39:20;96208.16;;;19.21;51.63
16834;BME280;8533;48.426;10.868;2024-03-22T12:41:45;96067.16;;;17.73;53.78
16834;BME280;8533;48.426;10.868;2024-03-22T12:44:11;96254.16;;;18.89;55.68
16834;BME280;8533;48.426;10.868;2024-03-22T12:46:36;96251.28;;;18.99;56.00
16834;BME280;8533;48.426;10.868;2024-03-22T12:49:02;96247.53;;;19.27;56.54
16834;BME280;8533;48.426;10.868;2024-03-22T12:51:27;96239.88;;;19.12;54.87